createdAt,value
2018-08-28T00:00:42.719Z,3
2018-08-28T00:05:45.036Z,2
2018-08-28T00:20:52.555Z,3
2018-08-28T00:25:55.153Z,3
2018-08-28T00:30:57.220Z,3
2018-08-28T00:36:06.994Z,3
2018-08-28T00:41:02.200Z,3
2018-08-28T00:46:05.046Z,3
2018-08-28T00:51:06.977Z,3
2018-08-28T01:01:11.996Z,3
2018-08-28T01:11:16.744Z,3
2018-08-28T01:16:19.184Z,3
2018-08-28T01:21:21.644Z,4
2018-08-28T01:26:24.076Z,4
2018-08-28T01:31:26.515Z,3
2018-08-28T01:36:28.951Z,3
2018-08-28T01:41:31.433Z,4
2018-08-28T01:46:33.829Z,4
2018-08-28T01:51:36.288Z,3
2018-08-28T01:56:38.717Z,3
2018-08-28T02:16:48.468Z,4
2018-08-28T02:21:51.008Z,4
2018-08-28T02:26:53.371Z,4
2018-08-28T02:31:55.818Z,4
2018-08-28T02:36:58.235Z,4
2018-08-28T02:42:00.794Z,4
2018-08-28T02:47:03.111Z,4
2018-08-28T02:52:05.578Z,4
2018-08-28T02:57:08.032Z,4
2018-08-28T03:02:10.454Z,4
2018-08-28T03:07:14.702Z,4
2018-08-28T03:12:15.460Z,4
2018-08-28T03:17:17.779Z,3
2018-08-28T03:22:20.216Z,4
2018-08-28T03:27:22.931Z,4
2018-08-28T03:32:25.100Z,4
2018-08-28T03:37:27.532Z,5
2018-08-28T03:42:29.958Z,4
2018-08-28T03:47:32.398Z,4
2018-08-28T03:52:34.888Z,5
2018-08-28T03:57:37.307Z,5
2018-08-28T04:02:39.730Z,5
2018-08-28T04:07:42.421Z,4
2018-08-28T04:12:44.679Z,5
2018-08-28T04:17:47.365Z,5
2018-08-28T04:22:49.541Z,5
2018-08-28T04:27:52.097Z,6
2018-08-28T04:32:54.876Z,5
2018-08-28T04:37:56.988Z,5
2018-08-28T04:42:59.342Z,5
2018-08-28T04:48:02.014Z,5
2018-08-28T04:53:04.190Z,7
2018-08-28T04:58:06.801Z,7
2018-08-28T05:03:09.050Z,7
2018-08-28T05:13:13.943Z,8
2018-08-28T05:18:16.371Z,8
2018-08-28T05:23:18.804Z,6
2018-08-28T05:28:21.262Z,5
2018-08-28T05:33:23.658Z,6
2018-08-28T05:38:26.115Z,5
2018-08-28T05:43:28.554Z,6
2018-08-28T05:48:31.004Z,6
2018-08-28T05:58:35.858Z,5
2018-08-28T06:03:38.298Z,6
2018-08-28T06:08:40.961Z,7
2018-08-28T06:13:43.195Z,8
2018-08-28T06:18:45.628Z,8
2018-08-28T06:33:53.079Z,8
2018-08-28T06:38:55.427Z,8
2018-08-28T06:43:57.925Z,9
2018-08-28T06:49:00.312Z,11
2018-08-28T06:59:06.097Z,11
2018-08-28T07:04:09.889Z,13
2018-08-28T07:09:10.221Z,11
2018-08-28T07:14:12.623Z,11
2018-08-28T07:19:14.918Z,14
2018-08-28T07:24:17.358Z,11
2018-08-28T07:29:19.804Z,12
2018-08-28T07:34:22.317Z,13
2018-08-28T07:39:24.672Z,12
2018-08-28T07:44:27.110Z,12
2018-08-28T07:49:29.682Z,12
2018-08-28T07:54:32.009Z,12
2018-08-28T07:59:34.519Z,12
2018-08-28T08:04:36.995Z,13
2018-08-28T08:09:39.460Z,14
2018-08-28T08:14:41.751Z,14
2018-08-28T08:19:44.326Z,13
2018-08-28T08:24:49.110Z,13
2018-08-28T08:29:49.216Z,13
2018-08-28T08:34:51.549Z,11
2018-08-28T08:39:53.975Z,11
2018-08-28T08:49:58.847Z,10
2018-08-28T08:55:02.322Z,11
2018-08-28T09:05:06.186Z,13
2018-08-28T09:10:09.023Z,12
2018-08-28T09:15:11.143Z,12
2018-08-28T09:20:13.513Z,10
2018-08-28T09:25:16.008Z,11
2018-08-28T09:30:18.428Z,12
2018-08-28T09:35:20.939Z,11
2018-08-28T09:45:25.713Z,10
2018-08-28T09:50:28.177Z,11
2018-08-28T09:55:30.593Z,11
2018-08-28T10:10:37.915Z,9
2018-08-28T10:15:40.350Z,9
2018-08-28T10:25:45.210Z,9
2018-08-28T10:35:50.105Z,8
2018-08-28T10:40:53.351Z,8
2018-08-28T10:45:55.060Z,9
2018-08-28T11:01:02.332Z,7
2018-08-28T11:06:04.757Z,9
2018-08-28T11:21:12.120Z,8
2018-08-28T11:36:19.588Z,9
2018-08-28T11:56:29.666Z,9
2018-08-28T12:01:31.779Z,8
2018-08-28T12:06:34.219Z,8
2018-08-28T12:11:36.519Z,9
2018-08-28T12:16:38.940Z,8
2018-08-28T12:26:43.968Z,8
2018-08-28T12:31:46.316Z,8
2018-08-28T12:36:48.785Z,8
2018-08-28T12:41:51.236Z,8
2018-08-28T12:56:58.500Z,8
2018-08-28T13:02:01.042Z,8
2018-08-28T13:22:10.665Z,9
2018-08-28T13:27:13.109Z,8
2018-08-28T13:37:17.985Z,8
2018-08-28T13:42:20.421Z,8
2018-08-28T13:47:22.891Z,8
2018-08-28T13:52:25.320Z,8
2018-08-28T14:02:30.309Z,8
2018-08-28T14:07:32.650Z,8
2018-08-28T14:12:35.090Z,8
2018-08-28T14:17:37.533Z,8
2018-08-28T14:27:42.588Z,8
2018-08-28T14:32:44.859Z,8
2018-08-28T14:42:49.763Z,8
2018-08-28T14:47:52.176Z,8
2018-08-28T14:57:57.076Z,7
2018-08-28T15:03:00.947Z,7
2018-08-28T15:08:02.067Z,8
2018-08-28T15:18:06.864Z,8
2018-08-28T15:23:09.300Z,8
2018-08-28T15:28:11.953Z,8
2018-08-28T15:33:14.423Z,7
2018-08-28T15:38:16.872Z,7
2018-08-28T15:43:19.127Z,8
2018-08-28T15:48:21.505Z,8
2018-08-28T15:58:26.372Z,8
2018-08-28T16:03:28.809Z,8
2018-08-28T16:08:31.520Z,8
2018-08-28T16:13:33.693Z,8
2018-08-28T16:18:36.252Z,8
2018-08-28T16:23:38.651Z,8
2018-08-28T16:28:41.725Z,7
2018-08-28T16:33:43.536Z,7
2018-08-28T16:38:46.026Z,8
2018-08-28T16:43:48.426Z,7
2018-08-28T16:48:50.795Z,7
2018-08-28T16:53:53.273Z,8
2018-08-28T16:58:55.714Z,7
2018-08-28T17:03:58.112Z,7
2018-08-28T17:09:00.919Z,7
2018-08-28T17:14:03.067Z,8
2018-08-28T17:29:10.339Z,9
2018-08-28T17:34:12.758Z,8
2018-08-28T17:44:17.939Z,7
2018-08-28T17:59:25.003Z,6
2018-08-28T18:04:28.454Z,7
2018-08-28T18:09:29.871Z,8
2018-08-28T18:14:32.630Z,6
2018-08-28T18:19:34.746Z,7
2018-08-28T18:24:37.284Z,7
2018-08-28T18:29:39.629Z,6
2018-08-28T18:34:42.432Z,6
2018-08-28T18:39:44.509Z,8
2018-08-28T18:44:47.120Z,7
2018-08-28T18:49:49.389Z,7
2018-08-28T18:59:54.269Z,7
2018-08-28T19:04:56.709Z,6
2018-08-28T19:20:04.028Z,8
2018-08-28T19:25:06.560Z,7
2018-08-28T19:30:08.922Z,9
2018-08-28T19:45:16.416Z,9
2018-08-28T19:50:18.689Z,9
2018-08-28T20:00:23.543Z,8
2018-08-28T20:05:25.985Z,8
2018-08-28T20:10:28.419Z,8
2018-08-28T20:15:30.881Z,8
2018-08-28T20:25:35.743Z,8
2018-08-28T20:30:38.190Z,8
2018-08-28T20:35:40.945Z,8
2018-08-28T20:40:43.189Z,7
2018-08-28T20:45:45.581Z,8
2018-08-28T20:50:48.013Z,9
2018-08-28T20:55:50.411Z,9
2018-08-28T21:00:52.846Z,9
2018-08-28T21:10:57.719Z,8
2018-08-28T21:16:00.148Z,7
2018-08-28T21:21:02.615Z,9
2018-08-28T21:36:09.921Z,8
2018-08-28T21:41:12.371Z,9
2018-08-28T21:51:17.240Z,8
2018-08-28T21:56:19.847Z,9
2018-08-28T22:01:22.179Z,9
2018-08-28T22:06:24.557Z,9
2018-08-28T22:11:30.990Z,8
2018-08-28T22:16:29.457Z,8
2018-08-28T22:21:31.920Z,8
2018-08-28T22:26:34.432Z,7
2018-08-28T22:31:36.911Z,8
2018-08-28T22:41:41.658Z,7
2018-08-28T22:46:44.126Z,7
2018-08-28T22:51:46.523Z,7
2018-08-28T23:01:51.398Z,8
2018-08-28T23:06:53.853Z,8
2018-08-28T23:11:56.298Z,7
2018-08-28T23:16:58.742Z,7
2018-08-28T23:22:01.175Z,7
2018-08-28T23:27:03.606Z,7
2018-08-28T23:37:08.540Z,7
2018-08-28T23:42:10.932Z,7
2018-08-28T23:47:13.367Z,7
2018-08-28T23:57:18.244Z,7
